KAUW/AUW METAR and TAF weather

Enter ICAO airport designator
Station Type Date Time Source
KAUW METAR 2021/01/27 13:54 UTC NOAA

KAUW 271354Z AUTO 31006KT 10SM SCT025 M18/M20 A3035 RMK AO2 SLP313 T11781200


Station Type Date Time Source
KAUW Decoded METAR 2021/01/27 13:54 UTC NOAA

WAUSAU DOWNTOWN AIRPORT, WI, United States (KAUW) 44-56N 089-37W 362M
Jan 27, 2021 - 08:54 AM EST / 2021.01.27 1354 UTC
Wind: from the NW (310 degrees) at 7 MPH (6 KT):0
Visibility: 10 mile(s):0
Sky conditions: partly cloudy
Temperature: -0.0 F (-17.8 C)
Windchill: -13 F (-25 C):2
Dew Point: -4.0 F (-20.0 C)
Relative Humidity: 82%
Pressure (altimeter): 30.35 in. Hg (1027 hPa)
ob: KAUW 271354Z AUTO 31006KT 10SM SCT025 M18/M20 A3035 RMK AO2 SLP313 T11781200
cycle: 14

Station Type Date Time Source
KAUW TAF 2021/01/27 14:42 UTC NOAA

TAF
AMD KAUW 271341Z 2714/2812 34004KT P6SM BKN025
TEMPO 2714/2716 SCT025
FM271600 34008G14KT P6SM SCT030
FM272300 33004KT P6SM SKC

Example: see airport list